createdAt,value
2017-08-29T00:00:13.586Z,34.00
2017-08-29T00:02:42.411Z,34.00
2017-08-29T00:05:10.811Z,34.00
2017-08-29T00:07:39.238Z,34.00
2017-08-29T00:10:08.002Z,34.00
2017-08-29T00:12:36.883Z,34.00
2017-08-29T00:15:05.311Z,33.90
2017-08-29T00:17:34.063Z,33.90
2017-08-29T00:20:02.611Z,33.90
2017-08-29T00:22:31.327Z,33.90
2017-08-29T00:24:59.982Z,33.90
2017-08-29T00:27:28.506Z,33.90
2017-08-29T00:29:57.193Z,33.90
2017-08-29T00:32:25.778Z,33.90
2017-08-29T00:34:54.371Z,33.80
2017-08-29T00:37:22.979Z,33.90
2017-08-29T00:39:51.843Z,33.80
2017-08-29T00:42:20.589Z,33.80
2017-08-29T00:44:49.038Z,33.80
2017-08-29T00:47:17.798Z,33.70
2017-08-29T00:49:46.410Z,33.80
2017-08-29T00:52:15.136Z,33.80
2017-08-29T00:54:43.369Z,33.70
2017-08-29T00:57:12.138Z,33.70
2017-08-29T00:59:40.885Z,33.70
2017-08-29T01:02:09.371Z,33.70
2017-08-29T01:04:37.894Z,33.60
2017-08-29T01:07:06.478Z,33.60
2017-08-29T01:09:34.811Z,33.70
2017-08-29T01:12:03.529Z,33.60
2017-08-29T01:14:32.154Z,33.60
2017-08-29T01:17:00.908Z,33.60
2017-08-29T01:19:29.439Z,33.60
2017-08-29T01:21:58.090Z,33.60
2017-08-29T01:24:26.906Z,33.60
2017-08-29T01:26:55.498Z,33.60
2017-08-29T01:29:24.046Z,33.60
2017-08-29T01:31:52.865Z,33.60
2017-08-29T01:34:21.586Z,33.60
2017-08-29T01:36:49.986Z,33.50
2017-08-29T01:39:18.798Z,33.50
2017-08-29T01:41:47.510Z,32.80
2017-08-29T01:44:17.717Z,32.50
2017-08-29T01:46:46.358Z,32.40
2017-08-29T01:49:15.351Z,32.50
2017-08-29T01:51:44.633Z,32.50
2017-08-29T01:54:14.606Z,32.50
2017-08-29T01:56:43.409Z,32.20
2017-08-29T01:59:12.529Z,32.00
2017-08-29T02:01:43.175Z,32.00
2017-08-29T02:04:13.102Z,32.10
2017-08-29T02:06:43.622Z,32.10
2017-08-29T02:09:13.291Z,32.20
2017-08-29T02:11:43.980Z,32.50
2017-08-29T02:14:13.894Z,32.70
2017-08-29T02:16:43.441Z,32.80
2017-08-29T02:19:13.198Z,32.90
2017-08-29T02:21:42.754Z,33.00
2017-08-29T02:24:12.166Z,33.00
2017-08-29T02:26:42.206Z,33.10
2017-08-29T02:29:11.622Z,33.10
2017-08-29T02:31:41.006Z,33.10
2017-08-29T02:34:11.716Z,33.10
2017-08-29T02:36:39.810Z,33.10
2017-08-29T02:39:08.566Z,33.20
2017-08-29T02:41:37.286Z,33.20
2017-08-29T02:44:05.994Z,33.30
2017-08-29T02:46:35.469Z,33.30
2017-08-29T02:49:04.366Z,33.30
2017-08-29T02:51:34.660Z,33.30
2017-08-29T02:54:03.070Z,33.30
2017-08-29T02:56:32.886Z,32.80
2017-08-29T02:59:02.694Z,32.80
2017-08-29T03:01:31.522Z,32.90
2017-08-29T03:04:00.910Z,32.90
2017-08-29T03:06:30.754Z,33.20
2017-08-29T03:08:59.908Z,33.40
2017-08-29T03:11:28.691Z,33.70
2017-08-29T03:13:59.894Z,33.80
2017-08-29T03:16:28.839Z,33.80
2017-08-29T03:18:57.825Z,34.00
2017-08-29T03:21:28.038Z,34.30
2017-08-29T03:23:58.599Z,34.50
2017-08-29T03:26:28.358Z,34.70
2017-08-29T03:28:57.130Z,34.80
2017-08-29T03:31:26.841Z,34.80
2017-08-29T03:33:55.329Z,35.00
2017-08-29T03:36:25.477Z,35.00
2017-08-29T03:38:55.993Z,35.10
2017-08-29T03:41:24.723Z,35.20
2017-08-29T03:43:53.150Z,35.30
2017-08-29T03:46:22.257Z,35.50
2017-08-29T03:48:53.418Z,35.50
2017-08-29T03:51:22.262Z,35.70
2017-08-29T03:53:50.457Z,36.00
2017-08-29T03:56:19.682Z,35.90
2017-08-29T03:58:50.130Z,36.00
2017-08-29T04:01:19.310Z,36.30
2017-08-29T04:03:48.446Z,36.60
2017-08-29T04:06:16.871Z,36.80
2017-08-29T04:08:46.656Z,36.90
2017-08-29T04:11:15.790Z,37.10
2017-08-29T04:13:44.655Z,37.30
2017-08-29T04:16:14.110Z,37.70
2017-08-29T04:18:43.792Z,38.00
2017-08-29T04:21:13.098Z,38.40
2017-08-29T04:23:42.120Z,38.80
2017-08-29T04:26:12.114Z,40.10
2017-08-29T04:28:40.454Z,41.80
2017-08-29T04:31:09.050Z,43.20
2017-08-29T04:33:37.462Z,43.80
2017-08-29T04:36:07.094Z,43.90
2017-08-29T04:38:37.314Z,43.50
2017-08-29T04:41:06.878Z,42.90
2017-08-29T04:43:35.830Z,43.00
2017-08-29T04:46:03.863Z,44.20
2017-08-29T04:48:32.550Z,45.10
2017-08-29T04:51:02.730Z,46.30
2017-08-29T04:53:31.674Z,45.60
2017-08-29T04:56:00.922Z,44.90
2017-08-29T04:58:30.386Z,45.00
2017-08-29T05:00:58.752Z,44.30
2017-08-29T05:03:27.615Z,44.10
2017-08-29T05:05:57.391Z,43.20
2017-08-29T05:08:26.685Z,43.00
2017-08-29T05:10:55.450Z,43.00
2017-08-29T05:13:24.714Z,44.10
2017-08-29T05:15:53.103Z,45.10
2017-08-29T05:18:21.902Z,46.20
2017-08-29T05:20:49.970Z,47.20
2017-08-29T05:23:20.392Z,47.10
2017-08-29T05:25:51.434Z,47.90
2017-08-29T05:28:19.869Z,47.20
2017-08-29T05:30:49.082Z,47.10
2017-08-29T05:33:20.107Z,46.60
2017-08-29T05:35:50.622Z,45.50
2017-08-29T05:38:19.262Z,45.50
2017-08-29T05:40:47.919Z,44.80
2017-08-29T05:43:15.958Z,44.30
2017-08-29T05:45:44.146Z,44.20
2017-08-29T05:48:12.554Z,43.90
2017-08-29T05:50:41.068Z,44.40
2017-08-29T05:53:10.491Z,44.60
2017-08-29T05:55:39.192Z,45.80
2017-08-29T05:58:08.018Z,46.70
2017-08-29T06:00:36.162Z,47.50
2017-08-29T06:03:04.191Z,48.30
2017-08-29T06:05:32.748Z,48.80
2017-08-29T06:08:01.546Z,49.00
2017-08-29T06:10:29.605Z,49.40
2017-08-29T06:12:57.621Z,49.40
2017-08-29T06:15:26.133Z,48.60
2017-08-29T06:17:54.578Z,47.50
2017-08-29T06:20:23.190Z,47.20
2017-08-29T06:22:51.778Z,47.10
2017-08-29T06:25:19.822Z,46.90
2017-08-29T06:27:47.845Z,45.80
2017-08-29T06:30:16.582Z,45.90
2017-08-29T06:32:44.634Z,45.90
2017-08-29T06:35:13.205Z,45.70
2017-08-29T06:37:42.023Z,45.30
2017-08-29T06:40:11.608Z,45.20
2017-08-29T06:42:39.642Z,45.00
2017-08-29T06:45:08.228Z,45.20
2017-08-29T06:47:37.963Z,45.00
2017-08-29T06:50:06.487Z,45.10
2017-08-29T06:52:35.108Z,45.30
2017-08-29T06:55:03.139Z,45.90
2017-08-29T06:57:31.611Z,47.10
2017-08-29T07:00:00.498Z,48.20
2017-08-29T07:02:29.337Z,48.80
2017-08-29T07:04:57.463Z,49.40
2017-08-29T07:07:26.403Z,49.50
2017-08-29T07:09:54.436Z,49.70
2017-08-29T07:12:22.906Z,50.00
2017-08-29T07:14:51.624Z,49.80
2017-08-29T07:17:20.114Z,48.60
2017-08-29T07:19:48.654Z,48.20
2017-08-29T07:22:18.244Z,47.80
2017-08-29T07:24:46.855Z,47.60
2017-08-29T07:27:14.966Z,47.10
2017-08-29T07:29:43.551Z,46.80
2017-08-29T07:45:08.087Z,46.20
2017-08-29T07:47:36.774Z,45.20
2017-08-29T07:50:05.050Z,45.10
2017-08-29T07:52:33.166Z,45.10
2017-08-29T07:55:01.655Z,45.20
2017-08-29T07:57:30.122Z,44.80
2017-08-29T07:59:58.981Z,44.80
2017-08-29T08:02:27.732Z,44.60
2017-08-29T08:04:56.162Z,44.60
2017-08-29T08:07:24.847Z,44.60
2017-08-29T08:09:53.558Z,44.60
2017-08-29T08:12:21.750Z,44.60
2017-08-29T08:14:50.747Z,44.40
2017-08-29T08:17:19.314Z,44.40
2017-08-29T08:19:47.440Z,44.20
2017-08-29T08:22:16.388Z,44.20
2017-08-29T08:24:45.035Z,44.10
2017-08-29T08:27:13.713Z,44.00
2017-08-29T08:29:42.377Z,44.00
2017-08-29T08:32:10.922Z,44.00
2017-08-29T08:34:39.571Z,44.10
2017-08-29T08:37:08.323Z,44.20
2017-08-29T08:39:36.374Z,44.10
2017-08-29T08:42:04.858Z,44.10
2017-08-29T08:44:33.637Z,44.00
2017-08-29T08:47:02.298Z,44.10
2017-08-29T08:49:30.817Z,43.90
2017-08-29T08:51:59.681Z,44.00
2017-08-29T08:54:29.134Z,44.10
2017-08-29T08:56:57.269Z,44.20
2017-08-29T08:59:26.055Z,44.30
2017-08-29T09:01:54.082Z,44.20
2017-08-29T09:04:22.127Z,44.30
2017-08-29T09:06:50.326Z,44.40
2017-08-29T09:09:18.351Z,44.40
2017-08-29T09:11:46.373Z,44.40
2017-08-29T09:14:14.490Z,44.10
2017-08-29T09:16:43.158Z,44.10
2017-08-29T09:19:11.682Z,44.00
2017-08-29T09:21:40.374Z,43.90
2017-08-29T09:24:09.095Z,43.70
2017-08-29T09:26:37.671Z,43.70
2017-08-29T09:29:05.827Z,43.80
2017-08-29T09:31:34.565Z,43.80
2017-08-29T09:34:02.614Z,43.90
2017-08-29T09:36:31.435Z,43.90
2017-08-29T09:38:59.582Z,44.00
2017-08-29T09:41:28.228Z,43.90
2017-08-29T09:43:56.986Z,44.00
2017-08-29T09:46:25.446Z,43.80
2017-08-29T09:48:54.058Z,43.80
2017-08-29T09:51:22.847Z,43.60
2017-08-29T09:53:51.539Z,43.60
2017-08-29T09:56:20.311Z,43.40
2017-08-29T09:58:48.969Z,43.40
2017-08-29T10:01:17.494Z,43.50
2017-08-29T10:03:45.534Z,43.40
2017-08-29T10:06:14.254Z,43.30
2017-08-29T10:08:42.937Z,43.10
2017-08-29T10:11:11.691Z,43.10
2017-08-29T10:13:39.790Z,42.90
2017-08-29T10:16:08.488Z,43.10
2017-08-29T10:18:36.500Z,42.90
2017-08-29T10:21:05.227Z,42.90
2017-08-29T10:23:33.998Z,42.80
2017-08-29T10:26:02.406Z,42.80
2017-08-29T10:28:31.031Z,42.60
2017-08-29T10:30:59.691Z,42.50
2017-08-29T10:33:28.155Z,42.60
2017-08-29T10:35:57.782Z,42.50
2017-08-29T10:38:26.560Z,42.50
2017-08-29T10:40:54.599Z,42.50
2017-08-29T10:43:23.254Z,42.00
2017-08-29T10:45:51.685Z,42.00
2017-08-29T10:48:19.722Z,41.80
2017-08-29T10:50:48.430Z,41.90
2017-08-29T10:53:16.778Z,41.80
2017-08-29T10:55:45.398Z,41.80
2017-08-29T10:58:14.215Z,41.70
2017-08-29T11:00:42.976Z,41.70
2017-08-29T11:03:11.103Z,41.60
2017-08-29T11:05:39.978Z,41.50
2017-08-29T11:08:08.441Z,41.40
2017-08-29T11:10:37.050Z,41.20
2017-08-29T11:13:05.902Z,41.10
2017-08-29T11:15:33.934Z,40.90
2017-08-29T11:18:02.498Z,41.00
2017-08-29T11:20:31.351Z,41.10
2017-08-29T11:22:59.530Z,40.90
2017-08-29T11:25:28.074Z,40.90
2017-08-29T11:27:56.898Z,40.80
2017-08-29T11:30:25.504Z,40.70
2017-08-29T11:32:53.722Z,40.60
2017-08-29T11:35:22.651Z,40.50
2017-08-29T11:37:50.842Z,40.30
2017-08-29T11:40:19.561Z,40.20
2017-08-29T11:42:48.451Z,40.20
2017-08-29T11:45:17.198Z,40.40
2017-08-29T11:47:45.423Z,40.40
2017-08-29T11:50:14.308Z,40.40
2017-08-29T11:52:43.096Z,40.40
2017-08-29T11:55:11.942Z,40.30
2017-08-29T11:57:40.814Z,40.10
2017-08-29T12:00:09.435Z,40.10
2017-08-29T12:02:38.054Z,40.00
2017-08-29T12:05:06.863Z,40.00
2017-08-29T12:07:35.592Z,39.90
2017-08-29T12:10:03.784Z,39.90
2017-08-29T12:12:32.489Z,39.80
2017-08-29T12:15:00.498Z,39.80
2017-08-29T12:17:29.075Z,39.70
2017-08-29T12:19:57.202Z,39.70
2017-08-29T12:22:25.630Z,39.60
2017-08-29T12:24:53.647Z,39.60
2017-08-29T12:27:22.203Z,39.50
2017-08-29T12:29:50.904Z,39.40
2017-08-29T12:32:19.256Z,39.40
2017-08-29T12:34:47.810Z,39.60
2017-08-29T12:37:15.821Z,39.50
2017-08-29T12:39:45.246Z,39.20
2017-08-29T12:42:13.734Z,39.20
2017-08-29T12:44:42.354Z,39.20
2017-08-29T12:47:11.138Z,39.00
2017-08-29T12:49:40.135Z,38.90
2017-08-29T12:52:08.889Z,38.80
2017-08-29T12:54:37.356Z,38.70
2017-08-29T12:57:06.103Z,38.60
2017-08-29T12:59:34.786Z,38.60
2017-08-29T13:02:02.890Z,38.40
2017-08-29T13:04:31.776Z,38.50
2017-08-29T13:07:00.499Z,38.40
2017-08-29T13:09:28.956Z,38.40
2017-08-29T13:11:57.602Z,38.40
2017-08-29T13:14:26.286Z,38.30
2017-08-29T13:16:55.078Z,38.30
2017-08-29T13:19:23.194Z,38.30
2017-08-29T13:21:51.838Z,38.20
2017-08-29T13:24:20.030Z,38.20
2017-08-29T13:26:48.175Z,38.10
2017-08-29T13:29:16.650Z,38.10
2017-08-29T13:31:45.394Z,38.00
2017-08-29T13:34:14.181Z,37.90
2017-08-29T13:36:42.898Z,37.90
2017-08-29T13:39:11.255Z,38.00
2017-08-29T13:41:39.455Z,37.90
2017-08-29T13:44:08.146Z,37.80
2017-08-29T13:46:36.151Z,37.70
2017-08-29T13:49:04.969Z,37.70
2017-08-29T13:51:33.413Z,37.70
2017-08-29T13:54:01.494Z,37.50
2017-08-29T13:56:30.379Z,37.50
2017-08-29T13:58:58.860Z,37.40
2017-08-29T14:01:26.878Z,37.40
2017-08-29T14:03:55.340Z,37.40
2017-08-29T14:06:23.919Z,37.30
2017-08-29T14:08:52.483Z,37.30
2017-08-29T14:11:21.043Z,37.20
2017-08-29T14:13:49.059Z,37.10
2017-08-29T14:16:17.462Z,37.20
2017-08-29T14:18:45.566Z,37.00
2017-08-29T14:21:14.029Z,36.90
2017-08-29T14:23:42.675Z,36.90
2017-08-29T14:26:11.594Z,36.80
2017-08-29T14:28:39.666Z,36.80
2017-08-29T14:31:08.145Z,36.80
2017-08-29T14:33:36.258Z,36.70
2017-08-29T14:36:04.907Z,36.60
2017-08-29T14:38:32.918Z,36.60
2017-08-29T14:41:01.463Z,36.60
2017-08-29T14:43:30.116Z,36.50
2017-08-29T14:45:58.639Z,36.50
2017-08-29T14:48:38.954Z,36.50
2017-08-29T14:51:07.582Z,36.50
2017-08-29T14:53:35.970Z,36.50
2017-08-29T14:56:04.718Z,36.50
2017-08-29T14:58:33.397Z,36.60
2017-08-29T15:01:02.084Z,36.60
2017-08-29T15:03:30.818Z,36.60
2017-08-29T15:05:59.294Z,36.60
2017-08-29T15:08:28.018Z,36.50
2017-08-29T15:10:56.138Z,36.60
2017-08-29T15:13:24.826Z,36.60
2017-08-29T15:15:52.839Z,36.50
2017-08-29T15:18:21.578Z,36.50
2017-08-29T15:20:50.221Z,36.50
2017-08-29T15:23:18.223Z,36.50
2017-08-29T15:25:47.064Z,36.50
2017-08-29T15:28:15.671Z,36.50
2017-08-29T15:30:43.735Z,36.60
2017-08-29T15:33:12.398Z,36.60
2017-08-29T15:35:40.441Z,36.70
2017-08-29T15:38:08.450Z,36.70
2017-08-29T15:40:37.055Z,36.70
2017-08-29T15:43:05.114Z,36.70
2017-08-29T15:45:33.531Z,36.70
2017-08-29T15:48:01.670Z,36.70
2017-08-29T15:50:30.270Z,36.70
2017-08-29T15:52:58.826Z,36.60
2017-08-29T15:55:27.276Z,36.60
2017-08-29T15:57:55.823Z,36.60
2017-08-29T16:00:24.375Z,36.50
2017-08-29T16:02:53.034Z,36.50
2017-08-29T16:05:21.581Z,36.40
2017-08-29T16:07:49.974Z,36.40
2017-08-29T16:10:18.822Z,36.40
2017-08-29T16:12:46.862Z,36.40
2017-08-29T16:15:15.375Z,36.30
2017-08-29T16:17:44.162Z,36.30
2017-08-29T16:20:12.202Z,36.20
2017-08-29T16:22:40.795Z,36.20
2017-08-29T16:25:09.502Z,36.10
2017-08-29T16:27:38.226Z,36.10
2017-08-29T16:30:06.628Z,36.00
2017-08-29T16:32:35.231Z,36.10
2017-08-29T16:35:03.278Z,36.00
2017-08-29T16:37:31.297Z,36.00
2017-08-29T16:39:59.418Z,36.00
2017-08-29T16:42:27.488Z,36.00
2017-08-29T16:44:55.490Z,36.00
2017-08-29T16:47:24.383Z,36.00
2017-08-29T16:49:53.008Z,36.00
2017-08-29T16:52:21.490Z,36.00
2017-08-29T16:54:50.242Z,36.00
2017-08-29T16:57:19.438Z,35.90
2017-08-29T16:59:48.055Z,35.90
2017-08-29T17:02:16.915Z,35.90
2017-08-29T17:04:45.696Z,35.90
2017-08-29T17:07:14.225Z,35.90
2017-08-29T17:09:42.878Z,35.80
2017-08-29T17:12:11.590Z,35.80
2017-08-29T17:14:40.322Z,35.80
2017-08-29T17:17:08.422Z,35.80
2017-08-29T17:19:36.446Z,35.80
2017-08-29T17:22:04.878Z,35.80
2017-08-29T17:24:33.089Z,35.70
2017-08-29T17:27:01.466Z,35.70
2017-08-29T17:29:30.025Z,35.70
2017-08-29T17:31:58.666Z,35.70
2017-08-29T17:34:27.070Z,35.70
2017-08-29T17:36:55.682Z,35.60
2017-08-29T17:39:24.489Z,35.70
2017-08-29T17:41:52.593Z,35.60
2017-08-29T17:44:20.914Z,35.60
2017-08-29T17:46:49.423Z,35.60
2017-08-29T17:49:17.981Z,35.60
2017-08-29T17:51:45.998Z,35.50
2017-08-29T17:54:14.642Z,35.40
2017-08-29T17:56:43.222Z,35.40
2017-08-29T17:59:11.974Z,35.40
2017-08-29T18:01:40.502Z,35.40
2017-08-29T18:04:08.980Z,35.40
2017-08-29T18:06:36.993Z,35.30
2017-08-29T18:09:05.875Z,35.30
2017-08-29T18:11:33.878Z,35.30
2017-08-29T18:14:02.306Z,35.20
2017-08-29T18:16:30.416Z,35.20
2017-08-29T18:18:58.433Z,35.20
2017-08-29T18:21:27.126Z,35.20
2017-08-29T18:23:55.225Z,35.20
2017-08-29T18:26:23.788Z,35.20
2017-08-29T18:28:52.434Z,35.20
2017-08-29T18:31:21.063Z,35.10
2017-08-29T18:33:49.646Z,35.10
2017-08-29T18:36:18.359Z,35.10
2017-08-29T18:38:47.058Z,35.10
2017-08-29T18:41:16.341Z,35.10
2017-08-29T18:43:44.343Z,35.10
2017-08-29T18:46:12.901Z,35.10
2017-08-29T18:48:41.526Z,35.10
2017-08-29T18:51:09.929Z,35.10
2017-08-29T18:53:38.458Z,35.10
2017-08-29T18:56:07.111Z,35.00
2017-08-29T18:58:35.684Z,35.00
2017-08-29T19:01:04.353Z,35.00
2017-08-29T19:03:32.872Z,35.00
2017-08-29T19:06:01.520Z,35.00
2017-08-29T19:08:29.993Z,34.90
2017-08-29T19:10:58.007Z,34.90
2017-08-29T19:13:26.522Z,34.90
2017-08-29T19:15:55.218Z,34.90
2017-08-29T19:18:23.763Z,34.90
2017-08-29T19:20:52.338Z,34.90
2017-08-29T19:23:20.994Z,34.90
2017-08-29T19:25:49.415Z,34.90
2017-08-29T19:28:18.070Z,34.90
2017-08-29T19:30:46.658Z,34.90
2017-08-29T19:33:14.991Z,34.90
2017-08-29T19:35:43.712Z,34.90
2017-08-29T19:38:12.205Z,34.90
2017-08-29T19:40:40.717Z,34.90
2017-08-29T19:43:09.335Z,34.90
2017-08-29T19:45:38.154Z,34.80
2017-08-29T19:48:06.512Z,34.80
2017-08-29T19:50:34.539Z,34.80
2017-08-29T19:53:02.670Z,34.70
2017-08-29T19:55:31.239Z,34.70
2017-08-29T19:57:59.662Z,34.80
2017-08-29T20:00:28.374Z,34.70
2017-08-29T20:02:56.960Z,34.70
2017-08-29T20:05:25.633Z,34.70
2017-08-29T20:07:54.190Z,34.60
2017-08-29T20:10:22.714Z,34.70
2017-08-29T20:12:51.294Z,34.60
2017-08-29T20:15:19.846Z,34.60
2017-08-29T20:17:48.467Z,34.60
2017-08-29T20:20:17.083Z,34.60
2017-08-29T20:22:45.942Z,34.60
2017-08-29T20:25:14.487Z,34.60
2017-08-29T20:27:43.001Z,34.60
2017-08-29T20:30:11.803Z,34.50
2017-08-29T20:32:40.382Z,34.50
2017-08-29T20:35:08.401Z,34.50
2017-08-29T20:37:37.072Z,34.40
2017-08-29T20:40:05.514Z,34.40
2017-08-29T20:42:33.586Z,34.30
2017-08-29T20:45:01.706Z,34.30
2017-08-29T20:47:29.750Z,34.30
2017-08-29T20:49:58.267Z,34.30
2017-08-29T20:52:26.847Z,34.30
2017-08-29T20:54:55.567Z,34.30
2017-08-29T20:57:23.578Z,34.30
2017-08-29T20:59:52.286Z,34.30
2017-08-29T21:02:20.677Z,34.30
2017-08-29T21:04:49.230Z,34.20
2017-08-29T21:07:18.014Z,34.20
2017-08-29T21:09:46.691Z,34.20
2017-08-29T21:12:15.218Z,34.20
2017-08-29T21:14:43.322Z,34.20
2017-08-29T21:17:11.869Z,34.20
2017-08-29T21:19:39.899Z,34.20
2017-08-29T21:22:08.460Z,34.10
2017-08-29T21:24:36.981Z,34.10
2017-08-29T21:27:05.496Z,34.10
2017-08-29T21:29:34.046Z,34.00
2017-08-29T21:32:02.434Z,34.10
2017-08-29T21:34:30.494Z,34.00
2017-08-29T21:36:59.222Z,34.00
2017-08-29T21:39:27.803Z,34.00
2017-08-29T21:41:56.525Z,34.00
2017-08-29T21:44:25.009Z,34.00
2017-08-29T21:46:53.531Z,33.90
2017-08-29T21:49:22.215Z,33.90
2017-08-29T21:51:51.097Z,34.00
2017-08-29T21:54:19.622Z,34.00
2017-08-29T21:56:48.107Z,34.00
2017-08-29T21:59:16.825Z,34.00
2017-08-29T22:01:45.278Z,34.00
2017-08-29T22:04:13.750Z,34.00
2017-08-29T22:06:41.905Z,34.00
2017-08-29T22:09:10.314Z,34.00
2017-08-29T22:11:38.930Z,34.00
2017-08-29T22:14:07.818Z,34.00
2017-08-29T22:16:36.041Z,33.90
2017-08-29T22:19:04.546Z,33.90
2017-08-29T22:21:33.173Z,33.90
2017-08-29T22:24:01.790Z,33.90
2017-08-29T22:26:30.402Z,33.90
2017-08-29T22:28:59.226Z,33.90
2017-08-29T22:31:27.679Z,33.90
2017-08-29T22:33:55.698Z,33.90
2017-08-29T22:36:24.270Z,33.90
2017-08-29T22:38:52.889Z,33.90
2017-08-29T22:41:21.474Z,33.80
2017-08-29T22:43:50.123Z,33.80
2017-08-29T22:46:18.146Z,33.80
2017-08-29T22:48:46.822Z,33.70
2017-08-29T22:51:15.678Z,33.80
2017-08-29T22:53:44.177Z,33.70
2017-08-29T22:56:12.781Z,33.80
2017-08-29T22:58:41.599Z,33.70
2017-08-29T23:01:10.318Z,33.70
2017-08-29T23:03:38.634Z,33.70
2017-08-29T23:06:07.321Z,33.70
2017-08-29T23:08:35.938Z,33.70
2017-08-29T23:11:04.554Z,33.70
2017-08-29T23:13:33.342Z,33.70
2017-08-29T23:16:01.367Z,33.60
2017-08-29T23:18:29.818Z,33.60
2017-08-29T23:20:58.526Z,33.60
2017-08-29T23:23:27.112Z,33.60
2017-08-29T23:25:55.891Z,33.50
2017-08-29T23:28:24.446Z,33.50
2017-08-29T23:30:52.903Z,33.40
2017-08-29T23:33:21.618Z,33.40
2017-08-29T23:35:50.101Z,33.40
2017-08-29T23:38:18.726Z,33.40
2017-08-29T23:40:46.758Z,33.40
2017-08-29T23:43:15.282Z,33.40
2017-08-29T23:45:43.890Z,33.40
2017-08-29T23:48:12.323Z,33.40
2017-08-29T23:50:40.934Z,33.30
2017-08-29T23:53:09.510Z,33.30
2017-08-29T23:55:37.975Z,33.30
2017-08-29T23:58:06.714Z,33.30
